ADDS TAF Board (Experimental) INFO Settings

IDs: Format: Expanded Condensed

KLAS - Las Vegas/McCarran I, NV, US

Issued at 1442 UTC 30 Mar 2015
Updated at: 1614 UTC 30 Mar 2015
Time1556Z 30/17Z 30/18Z 30/19Z 30/20Z 30/21Z 30/22Z 30/23Z 31/00Z 31/01Z 31/02Z 31/03Z 31/04Z 31/05Z
Type OBS PRVL PRVL PRVL PRVL PRVL PRVL PRVL PRVL PRVL PRVL PRVL PRVL PRVL
VIS 10 >6 >6 >6 >6 >6 >6 >6 >6 >6 >6 >6 >6 >6
CIG -- -- -- -- -- -- -- -- -- -- -- -- -- --
Cover FEW SCT SCT SCT SCT SCT SCT SCT SCT SCT SCT SCT SCT SCT
FltCat VFR VFR VFR VFR VFR VFR VFR VFR VFR VFR VFR VFR VFR VFR
WX -- -- -- -- -- -- -- -- -- -- -- -- -- --
WDir 180 VRB VRB VRB VRB VRB VRB VRB VRB VRB VRB 210 210 210
WSpd 4 5 5 5 5 5 5 5 5 5 5 8 8 8
WGst -- -- -- -- -- -- -- -- -- -- -- -- -- --
R01/19
XWnd -2 VRB VRB VRB VRB VRB VRB VRB VRB VRB VRB 1 1 1
HWnd -4 VRB VRB VRB VRB VRB VRB VRB VRB VRB VRB -8 -8 -8
R07/25
XWnd -4 VRB VRB VRB VRB VRB VRB VRB VRB VRB VRB -7 -7 -7
HWnd 0 VRB VRB VRB VRB VRB VRB VRB VRB VRB VRB -4 -4 -4

NOTE: TEMPO conditions in [brackets]. Keep in mind TEMPO conditions might be better (lower impact) than prevailing conditions.

Raw TAF
KLAS 301442Z 3015/3112 21008KT P6SM FEW250
  FM301600 VRB05KT P6SM SCT250
  FM310300 21008KT P6SM SCT250


Raw METAR
KLAS 301556Z 18004KT 10SM FEW250 23/M06 A3004 RMK AO2 SLP153 T02281056
KLAS 301456Z 20007KT 10SM FEW250 19/M04 A3003 RMK AO2 SLP148 T01941039 53016
KLAS 301356Z 21005KT 10SM FEW250 18/M04 A3001 RMK AO2 SLP142 T01831044

METAR Board
Radar Display
Forecast Discussion

TAF Board Legend

Potential Impact
Threat None Slight Moderate High
Visibility (sm) ≥5.1 5.1>X≥3 3>X≥1 <1
Ceiling (100 ft) ≥30.1 30.1>X≥10 10>X≥5 <5
Wind Speed (kt) <10 10≤X<20 20≤X<30 ≥30
Wind Gust (kt) <15 15≤X<25 25≤X<35 ≥35
Weather No Wx Reported VCTS,-TS,-FZRA,SN TS,FZRA +TS,+FZRA,+SN